Time;durP1;ratioP1;P1;durP2;ratioP2;P2;SDS_P1;SDS_P2;PMS_P1;PMS_P2;Temp;Humidity;BMP_temperature;BMP_pressure;BME280_temperature;BME280_humidity;BME280_pressure;Samples;Min_cycle;Max_cycle;Signal;HPM_P1;HPM_P2
2022/12/15 00:39:12;;;;;;;8.05;6.65;;;;;;;-2.49;79.69;146715.03;5034734;28;20092;-63
2022/12/15 00:41:37;;;;;;;8.63;7.38;;;;;;;-2.48;80.64;146716.28;5044864;28;20278;-63
2022/12/15 00:44:03;;;;;;;8.95;7.43;;;;;;;-2.49;79.55;146713.78;5026859;28;20241;-63
2022/12/15 01:22:06;;;;;;;9.88;7.50;;;;;;;-2.44;80.32;146726.44;5037300;28;20040;-64
2022/12/15 01:24:32;;;;;;;9.63;7.50;;;;;;;-2.51;80.04;146708.69;5037212;28;20234;-63
2022/12/15 01:26:57;;;;;;;11.18;7.53;;;;;;;-2.56;79.92;146696.03;5029523;28;20032;-65
2022/12/15 01:29:24;;;;;;;9.98;7.25;;;;;;;-2.54;80.24;146701.09;5045408;28;20029;-64
2022/12/15 01:31:49;;;;;;;9.55;7.90;;;;;;;-2.51;80.18;146708.69;5025668;28;20130;-64
2022/12/15 01:34:16;;;;;;;10.95;7.72;;;;;;;-2.36;80.69;146746.75;5025736;28;20080;-64
2022/12/15 01:36:41;;;;;;;10.57;7.82;;;;;;;-2.26;81.28;146770.88;5035900;28;20097;-64
2022/12/15 01:39:07;;;;;;;8.57;7.40;;;;;;;-2.25;80.24;146773.44;5039879;28;20021;-63
2022/12/15 01:41:33;;;;;;;12.00;7.85;;;;;;;-2.37;80.22;146744.22;5026177;28;20032;-63
2022/12/15 01:44:23;;;;;;;9.93;7.78;;;;;;;-2.22;80.91;146781.03;5045195;28;20087;-64
2022/12/15 01:46:53;;;;;;;10.70;8.38;;;;;;;-2.47;79.90;146720.09;5029884;28;20053;-65
2022/12/15 01:49:28;;;;;;;10.48;7.78;;;;;;;-2.44;79.78;146727.75;5040502;28;20029;-65
2022/12/15 01:52:03;;;;;;;11.85;7.70;;;;;;;-2.31;81.28;146758.16;5045165;28;20029;-64
2022/12/15 01:54:37;;;;;;;9.98;8.00;;;;;;;-2.40;79.85;146736.59;5027785;28;20068;-64
2022/12/15 01:57:07;;;;;;;10.07;8.15;;;;;;;-2.51;79.34;146708.69;5029647;28;20299;-64
2022/12/15 01:59:38;;;;;;;10.63;8.68;;;;;;;-2.68;80.22;146666.84;5044611;28;20037;-63
2022/12/15 02:02:03;;;;;;;9.93;8.00;;;;;;;-2.71;79.90;146660.47;5024995;28;20034;-63
2022/12/15 02:04:30;;;;;;;11.07;8.35;;;;;;;-2.58;80.06;146690.94;5041408;28;20029;-64
2022/12/15 02:06:56;;;;;;;9.82;8.07;;;;;;;-2.47;80.65;146718.84;5044888;28;20033;-62
2022/12/15 02:09:23;;;;;;;10.05;7.95;;;;;;;-2.48;79.85;146716.28;5044884;28;20033;-62
2022/12/15 02:12:07;;;;;;;11.82;8.57;;;;;;;-2.58;80.38;146692.19;5034550;28;20105;-65
2022/12/15 02:14:55;;;;;;;12.30;7.97;;;;;;;-2.60;80.40;146687.13;5025220;28;20104;-63
2022/12/15 02:17:34;;;;;;;11.07;8.77;;;;;;;-2.77;80.24;146646.53;5044565;28;20033;-63
2022/12/15 02:20:24;;;;;;;10.13;8.40;;;;;;;-2.68;80.07;146668.13;5024741;28;20101;-63
2022/12/15 02:23:29;;;;;;;11.38;8.85;;;;;;;-2.81;79.63;146635.13;5043726;28;20033;-64
2022/12/15 02:25:55;;;;;;;11.32;8.52;;;;;;;-2.86;80.69;146623.72;5024313;28;20218;-63
2022/12/15 02:28:35;;;;;;;12.07;9.02;;;;;;;-2.85;80.25;146624.97;5024586;28;20025;-62
2022/12/15 02:34:07;;;;;;;10.23;8.30;;;;;;;-2.85;80.90;146624.97;5033612;28;20044;-63
2022/12/15 02:36:40;;;;;;;13.45;9.40;;;;;;;-2.88;80.79;146617.38;5024509;28;20034;-62
2022/12/15 02:39:06;;;;;;;13.27;8.57;;;;;;;-2.94;80.36;146603.41;5029173;28;20033;-64
2022/12/15 02:41:38;;;;;;;11.55;9.10;;;;;;;-2.96;79.90;146599.63;5044282;28;20074;-63
2022/12/15 02:44:13;;;;;;;14.95;9.00;;;;;;;-2.99;80.84;146592.03;5023417;28;20032;-63
2022/12/15 02:46:53;;;;;;;12.73;9.15;;;;;;;-2.94;81.91;146603.41;5041428;28;20041;-64
2022/12/15 02:49:30;;;;;;;13.70;8.68;;;;;;;-3.00;80.96;146589.47;5038294;28;20100;-63
2022/12/15 02:52:33;;;;;;;14.68;9.75;;;;;;;-3.08;81.90;146567.94;5024187;28;20029;-63
2022/12/15 02:55:33;;;;;;;12.82;9.35;;;;;;;-3.02;81.44;146583.13;5035811;28;20029;-64
2022/12/15 02:58:17;;;;;;;12.88;9.23;;;;;;;-3.19;81.43;146542.59;5044719;28;20041;-64
2022/12/15 03:00:48;;;;;;;11.68;9.02;;;;;;;-3.30;82.01;146514.69;5033752;28;20059;-63
2022/12/15 03:03:18;;;;;;;15.00;10.70;;;;;;;-3.36;81.77;146499.50;5043717;28;20021;-63
2022/12/15 03:05:48;;;;;;;13.95;9.95;;;;;;;-3.32;81.35;146510.88;5042385;28;20037;-63
2022/12/15 03:08:13;;;;;;;12.60;9.40;;;;;;;-3.28;82.12;146519.75;5036498;28;20033;-63
2022/12/15 03:10:39;;;;;;;12.52;9.65;;;;;;;-3.19;82.50;146541.28;5043653;28;20029;-64
2022/12/15 03:13:04;;;;;;;12.32;9.43;;;;;;;-3.28;82.19;146518.50;5037997;28;20096;-63
2022/12/15 03:15:31;;;;;;;14.18;10.13;;;;;;;-3.43;82.00;146483.00;5036048;28;20065;-64
2022/12/15 03:17:56;;;;;;;13.63;9.48;;;;;;;-3.48;82.34;146470.31;5026762;28;20072;-63
2022/12/15 03:20:22;;;;;;;12.85;9.05;;;;;;;-3.47;82.12;146472.84;5043676;28;20309;-63
2022/12/15 03:22:48;;;;;;;13.73;10.32;;;;;;;-3.54;82.56;146456.38;5028193;28;20148;-62
2022/12/15 03:25:14;;;;;;;14.23;9.75;;;;;;;-3.42;82.36;146485.56;5023519;28;20310;-62
2022/12/15 03:27:40;;;;;;;14.82;10.27;;;;;;;-3.39;82.94;146493.16;5032552;28;20056;-61
2022/12/15 03:30:06;;;;;;;13.35;9.75;;;;;;;-3.32;81.91;146509.59;5039209;28;20042;-63
2022/12/15 03:32:32;;;;;;;14.15;9.77;;;;;;;-3.42;81.99;146485.56;5023896;28;20029;-62
2022/12/15 03:34:57;;;;;;;11.82;9.75;;;;;;;-3.52;82.15;146460.16;5042901;28;20021;-62
2022/12/15 03:37:23;;;;;;;14.05;9.50;;;;;;;-3.41;82.53;146488.06;5028692;28;20052;-63
2022/12/15 03:39:48;;;;;;;13.15;9.55;;;;;;;-3.41;82.13;146488.06;5033219;28;20037;-63
2022/12/15 03:42:46;;;;;;;13.88;9.43;;;;;;;-3.31;81.72;146512.13;5037915;28;20026;-63
2022/12/15 03:44:59;;;;;;;12.95;9.73;;;;;;;-3.39;81.57;146491.84;5025664;28;20025;-63
2022/12/15 03:47:25;;;;;;;14.40;10.10;;;;;;;-3.44;81.80;146480.44;5023386;28;20041;-62
2022/12/15 03:49:50;;;;;;;13.88;9.70;;;;;;;-3.41;81.96;146486.81;5023559;28;20060;-62
2022/12/15 03:52:16;;;;;;;10.52;8.40;;;;;;;-3.38;81.30;146494.41;5036782;28;20025;-63
2022/12/15 03:54:41;;;;;;;11.50;8.57;;;;;;;-3.37;81.37;146496.94;5034268;28;20034;-62
2022/12/15 03:57:07;;;;;;;11.23;8.07;;;;;;;-3.25;80.83;146526.09;5027095;28;20025;-64
2022/12/15 03:59:32;;;;;;;9.32;7.43;;;;;;;-3.28;81.64;146518.50;5043103;28;20033;-63
2022/12/15 04:01:58;;;;;;;9.63;7.15;;;;;;;-3.20;81.96;146540.03;5023737;28;20030;-63
2022/12/15 04:04:23;;;;;;;10.70;7.57;;;;;;;-3.21;80.82;146536.22;5037569;28;20217;-64
2022/12/15 04:06:49;;;;;;;8.60;7.15;;;;;;;-3.25;80.30;146527.38;5034184;28;20057;-63
2022/12/15 04:09:14;;;;;;;12.82;8.85;;;;;;;-3.11;80.63;146561.56;5042938;28;20068;-63
2022/12/15 04:11:40;;;;;;;11.68;8.60;;;;;;;-3.13;80.55;146556.53;5037843;28;20348;-63
2022/12/15 04:14:05;;;;;;;10.77;7.63;;;;;;;-3.04;80.73;146578.06;5042799;28;20048;-63
2022/12/15 04:16:31;;;;;;;10.95;7.95;;;;;;;-3.11;80.45;146561.56;5027871;28;20305;-63
2022/12/15 04:21:40;;;;;;;10.77;8.05;;;;;;;-3.20;80.42;146538.78;5035974;28;20032;-63
2022/12/15 05:32:35;;;;;;;13.57;8.90;;;;;;;-2.92;80.54;146608.53;5045512;28;20131;-64
2022/12/15 05:35:01;;;;;;;11.20;8.85;;;;;;;-2.90;80.53;146613.56;5026526;28;20025;-64
2022/12/15 05:37:27;;;;;;;17.08;9.18;;;;;;;-2.96;80.39;146598.38;5038876;28;20057;-65
2022/12/15 05:39:52;;;;;;;13.45;9.18;;;;;;;-2.82;80.60;146633.88;5025168;28;20037;-65
2022/12/15 05:42:17;;;;;;;14.10;9.23;;;;;;;-2.93;80.46;146604.72;5030279;28;20037;-63
2022/12/15 05:44:43;;;;;;;10.88;8.65;;;;;;;-2.92;80.37;146607.22;5045215;28;20036;-64
2022/12/15 05:47:10;;;;;;;12.50;9.35;;;;;;;-2.98;81.02;146594.56;5025066;28;20034;-63
2022/12/15 05:49:36;;;;;;;13.30;9.40;;;;;;;-2.84;80.21;146627.53;5040420;28;20025;-64
2022/12/15 05:52:01;;;;;;;13.40;9.38;;;;;;;-2.83;80.49;146630.06;5034414;28;20089;-65
2022/12/15 05:54:27;;;;;;;13.23;9.38;;;;;;;-2.83;80.08;146630.06;5030909;28;20044;-64
2022/12/15 05:56:52;;;;;;;10.25;8.27;;;;;;;-2.73;80.43;146655.44;5043831;28;20029;-65
2022/12/15 05:59:18;;;;;;;12.05;9.38;;;;;;;-2.71;80.36;146659.22;5025121;28;20057;-64
2022/12/15 06:01:44;;;;;;;11.63;8.95;;;;;;;-2.72;79.95;146656.69;5041221;28;20059;-63
2022/12/15 06:04:13;;;;;;;10.95;8.50;;;;;;;-2.75;80.07;146649.09;5033305;28;20101;-64
2022/12/15 06:06:40;;;;;;;16.27;9.10;;;;;;;-2.71;79.44;146659.22;5032493;28;20097;-64
2022/12/15 06:09:05;;;;;;;12.05;8.68;;;;;;;-2.85;78.62;146624.97;5026213;28;20025;-63
2022/12/15 06:11:31;;;;;;;11.50;8.98;;;;;;;-2.81;78.71;146636.44;5040655;28;20033;-64
2022/12/15 06:13:57;;;;;;;10.27;8.15;;;;;;;-2.88;79.25;146618.66;5042484;28;20088;-63
2022/12/15 06:16:24;;;;;;;9.85;7.78;;;;;;;-2.99;79.11;146592.03;5032062;28;20077;-64
2022/12/15 06:18:53;;;;;;;11.65;8.10;;;;;;;-2.94;79.02;146603.41;5027382;28;20218;-64
2022/12/15 06:21:28;;;;;;;10.57;7.50;;;;;;;-2.95;78.66;146602.19;5024481;28;20022;-65
2022/12/15 06:23:55;;;;;;;11.70;9.02;;;;;;;-2.85;79.65;146626.28;5025561;28;20029;-63
2022/12/15 06:26:32;;;;;;;11.65;8.27;;;;;;;-3.01;79.03;146585.69;5044703;28;20021;-63
2022/12/15 06:29:01;;;;;;;13.50;8.63;;;;;;;-3.13;78.75;146557.78;5041413;28;20036;-63
2022/12/15 06:31:28;;;;;;;13.15;8.80;;;;;;;-3.06;79.46;146574.28;5030756;28;20038;-63
2022/12/15 06:33:54;;;;;;;10.88;8.27;;;;;;;-2.97;79.03;146597.06;5024417;28;20089;-63
2022/12/15 06:36:22;;;;;;;11.23;8.45;;;;;;;-2.97;79.34;146597.06;5024723;28;20104;-63
2022/12/15 06:38:49;;;;;;;12.73;8.57;;;;;;;-3.02;78.79;146583.13;5024691;28;20226;-64
2022/12/15 06:41:17;;;;;;;12.77;8.88;;;;;;;-3.18;79.24;146543.84;5044410;28;20086;-64
2022/12/15 06:43:49;;;;;;;12.07;8.75;;;;;;;-3.22;79.57;146534.97;5028600;28;20330;-64
2022/12/15 06:46:15;;;;;;;13.07;8.82;;;;;;;-3.18;79.40;146545.13;5036401;28;20032;-63
2022/12/15 06:48:43;;;;;;;14.88;9.45;;;;;;;-3.26;79.35;146523.53;5031540;28;20214;-63
2022/12/15 06:51:09;;;;;;;12.43;9.00;;;;;;;-3.20;80.20;146540.03;5025661;28;20064;-64
2022/12/15 06:53:37;;;;;;;14.13;9.15;;;;;;;-3.38;79.58;146495.66;5024326;28;20318;-64
2022/12/15 06:56:06;;;;;;;13.10;9.30;;;;;;;-3.37;79.65;146498.19;5042425;28;20051;-63
2022/12/15 06:58:33;;;;;;;13.85;9.80;;;;;;;-3.18;79.45;146543.84;5029929;28;20025;-64
2022/12/15 07:01:04;;;;;;;14.75;10.30;;;;;;;-3.36;79.51;146500.75;5048999;28;20064;-63
2022/12/15 07:03:30;;;;;;;14.40;10.43;;;;;;;-3.39;80.04;146493.16;5041777;28;20021;-63
2022/12/15 07:06:08;;;;;;;15.10;9.63;;;;;;;-3.42;80.54;146484.25;5042780;28;20187;-64
2022/12/15 07:08:34;;;;;;;15.05;10.68;;;;;;;-3.62;80.65;146434.81;5023870;28;20042;-65
2022/12/15 07:11:02;;;;;;;14.65;10.80;;;;;;;-3.54;80.41;146456.38;5023702;28;20022;-64
2022/12/15 07:13:28;;;;;;;20.42;13.90;;;;;;;-3.66;81.35;146425.97;5036861;28;20037;-63
2022/12/15 07:15:53;;;;;;;16.52;12.55;;;;;;;-3.67;81.72;146423.44;5034787;28;20080;-63
2022/12/15 07:18:19;;;;;;;20.67;13.82;;;;;;;-3.88;80.67;146371.47;5027662;28;20128;-63
2022/12/15 07:20:45;;;;;;;19.73;12.90;;;;;;;-3.61;81.93;146437.38;5043587;28;20025;-63
2022/12/15 07:23:10;;;;;;;19.80;13.48;;;;;;;-3.94;82.00;146356.28;5030068;28;20048;-64
2022/12/15 07:25:36;;;;;;;21.23;14.85;;;;;;;-4.14;81.88;146308.13;5027925;28;20055;-63
2022/12/15 07:28:02;;;;;;;21.30;15.30;;;;;;;-3.99;82.54;146346.16;5023429;28;20255;-63
2022/12/15 07:30:28;;;;;;;21.23;15.15;;;;;;;-3.79;82.69;146394.31;5023477;28;20359;-63
2022/12/15 07:32:54;;;;;;;24.83;16.73;;;;;;;-3.72;82.42;146412.03;5023581;28;20121;-63
2022/12/15 07:35:19;;;;;;;25.40;16.52;;;;;;;-4.02;82.93;146338.56;5023498;28;20026;-63
2022/12/15 07:37:45;;;;;;;24.15;16.95;;;;;;;-3.99;82.27;146346.16;5026488;28;20033;-65
2022/12/15 07:40:11;;;;;;;25.33;16.98;;;;;;;-4.02;82.28;146338.56;5040378;28;20033;-64
2022/12/15 07:42:36;;;;;;;25.23;16.60;;;;;;;-3.93;83.00;146360.09;5031422;28;20030;-63
2022/12/15 07:45:04;;;;;;;24.13;16.73;;;;;;;-4.31;82.00;146265.09;5024681;28;20030;-63
2022/12/15 07:47:30;;;;;;;22.70;15.93;;;;;;;-4.39;83.04;146247.34;5043024;28;20037;-63
2022/12/15 07:49:56;;;;;;;24.30;17.08;;;;;;;-4.60;84.25;146194.13;5026129;28;20063;-63
2022/12/15 07:52:22;;;;;;;22.17;15.32;;;;;;;-4.31;83.79;146265.09;5023214;28;20068;-63
2022/12/15 07:54:47;;;;;;;23.33;15.82;;;;;;;-4.17;84.27;146300.53;5029655;28;20025;-62
2022/12/15 07:57:15;;;;;;;24.50;16.02;;;;;;;-4.54;83.60;146209.38;5025885;28;20040;-63
2022/12/15 07:59:40;;;;;;;20.52;14.70;;;;;;;-4.48;83.58;146224.53;5032923;28;20447;-64
2022/12/15 08:02:09;;;;;;;22.80;16.38;;;;;;;-4.72;83.20;146165.03;5034942;28;20038;-64
2022/12/15 08:04:34;;;;;;;22.52;15.40;;;;;;;-4.26;83.91;146279.03;5028618;28;20041;-64
2022/12/15 08:07:00;;;;;;;22.15;14.18;;;;;;;-4.22;83.28;146287.88;5029982;28;20099;-64
2022/12/15 08:09:25;;;;;;;22.50;15.18;;;;;;;-4.45;83.19;146232.13;5037289;28;20049;-64
2022/12/15 08:11:51;;;;;;;19.58;14.25;;;;;;;-4.35;81.64;146257.50;5026327;28;20033;-65
2022/12/15 08:14:17;;;;;;;21.90;15.45;;;;;;;-4.43;82.74;146237.22;5038128;28;20033;-64
2022/12/15 08:16:44;;;;;;;21.58;14.70;;;;;;;-4.32;82.84;146263.78;5035030;28;20074;-63
2022/12/15 08:19:14;;;;;;;19.88;14.30;;;;;;;-4.03;83.64;146336.00;5036516;28;20061;-64
2022/12/15 08:21:41;;;;;;;21.20;15.35;;;;;;;-4.11;81.90;146315.72;5024454;28;20084;-64
2022/12/15 08:24:08;;;;;;;24.45;15.65;;;;;;;-4.13;81.76;146309.38;5040941;28;20089;-63
2022/12/15 08:26:34;;;;;;;21.23;15.23;;;;;;;-4.42;82.63;146238.47;5025704;28;20065;-64
2022/12/15 08:29:05;;;;;;;20.83;14.65;;;;;;;-4.30;82.41;146267.59;5028491;28;20092;-63
2022/12/15 08:31:32;;;;;;;22.37;14.47;;;;;;;-4.25;82.63;146280.28;5036037;28;20057;-64
2022/12/15 08:34:02;;;;;;;18.08;14.00;;;;;;;-4.31;82.83;146266.34;5034583;28;20035;-64
2022/12/15 08:36:28;;;;;;;17.60;13.45;;;;;;;-4.46;82.11;146229.63;5033501;28;20218;-64
2022/12/15 08:38:58;;;;;;;16.92;13.07;;;;;;;-4.62;82.21;146189.09;5021384;28;20061;-65
2022/12/15 08:41:27;;;;;;;18.85;13.52;;;;;;;-4.65;82.91;146181.50;5022472;28;20042;-65
2022/12/15 08:43:53;;;;;;;20.17;13.57;;;;;;;-4.39;82.77;146247.34;5042380;28;20025;-64
2022/12/15 08:46:22;;;;;;;17.98;13.63;;;;;;;-4.46;82.98;146229.63;5042036;28;20363;-64
2022/12/15 08:48:48;;;;;;;18.05;12.95;;;;;;;-4.37;82.99;146252.41;5038155;28;20022;-64
2022/12/15 08:51:15;;;;;;;18.52;13.15;;;;;;;-4.16;81.85;146303.09;5026921;28;20076;-66
2022/12/15 08:53:41;;;;;;;19.02;13.40;;;;;;;-4.36;83.05;146253.66;5044896;28;20033;-65
2022/12/15 08:56:12;;;;;;;15.93;12.60;;;;;;;-4.46;82.22;146229.63;5028256;28;20056;-65
2022/12/15 08:58:38;;;;;;;16.40;12.43;;;;;;;-4.30;82.68;146267.59;5039921;28;20083;-64
2022/12/15 09:01:10;;;;;;;17.98;12.13;;;;;;;-4.44;81.21;146233.44;5036882;28;20061;-64
2022/12/15 09:03:35;;;;;;;;;;;;;;;-4.33;81.24;146261.28;5032095;28;20029;-65
2022/12/15 09:06:02;;;;;;;16.92;12.70;;;;;;;-4.52;82.83;146214.41;5041117;28;19927;-66
2022/12/15 09:08:29;;;;;;;19.27;13.27;;;;;;;-4.29;82.66;146271.44;5045859;28;20029;-65
2022/12/15 09:10:58;;;;;;;17.73;13.18;;;;;;;-4.42;83.19;146238.47;5029496;28;20026;-65
2022/12/15 09:13:24;;;;;;;18.65;13.52;;;;;;;-4.27;81.22;146275.22;5025724;28;20361;-66
2022/12/15 09:16:04;;;;;;;19.33;12.45;;;;;;;-4.19;82.50;146296.75;5032498;28;20044;-64
2022/12/15 09:18:31;;;;;;;17.98;13.10;;;;;;;-4.02;82.51;146338.56;5037517;28;20070;-65
2022/12/15 09:21:05;;;;;;;18.38;13.13;;;;;;;-4.01;81.42;146339.81;5025608;28;20030;-68
2022/12/15 09:23:32;;;;;;;19.02;13.55;;;;;;;-3.87;82.06;146374.03;5035035;28;20341;-64
2022/12/15 09:26:13;;;;;;;17.95;13.27;;;;;;;-3.77;80.56;146399.34;5041650;28;20146;-64
2022/12/15 09:28:39;;;;;;;18.45;13.02;;;;;;;-3.69;81.31;146418.34;5045527;28;20067;-67
2022/12/15 09:31:14;;;;;;;19.00;12.27;;;;;;;-3.88;80.58;146371.47;5036130;28;20033;-65
2022/12/15 09:33:41;;;;;;;17.73;12.32;;;;;;;-3.62;81.21;146434.81;5025765;28;20034;-64
2022/12/15 09:36:08;;;;;;;17.20;12.40;;;;;;;-3.68;80.08;146422.19;5026498;28;20069;-64
2022/12/15 09:38:36;;;;;;;19.58;12.32;;;;;;;-3.79;80.56;146393.00;5045127;28;20025;-64
2022/12/15 09:41:20;;;;;;;16.50;11.82;;;;;;;-3.94;78.77;146356.28;5028182;28;20025;-66
2022/12/15 09:44:00;;;;;;;16.95;11.93;;;;;;;-3.68;79.10;146422.19;5040011;28;20235;-65
2022/12/15 09:46:40;;;;;;;14.68;10.30;;;;;;;-3.66;78.83;146425.97;5033592;28;20037;-64
2022/12/15 09:49:24;;;;;;;14.55;10.35;;;;;;;-3.74;78.68;146405.69;5032568;28;20030;-65
2022/12/15 09:51:59;;;;;;;12.27;9.30;;;;;;;-3.75;77.26;146404.41;5031764;28;20045;-64
2022/12/15 09:54:31;;;;;;;11.38;8.85;;;;;;;-3.81;77.67;146389.22;5041606;28;20025;-64
2022/12/15 09:57:09;;;;;;;14.10;9.02;;;;;;;-4.07;77.25;146325.88;5023868;28;20034;-64
2022/12/15 10:03:03;;;;;;;10.57;8.52;;;;;;;-3.94;77.37;146357.53;5025397;28;20044;-65
2022/12/15 10:06:06;;;;;;;13.00;9.73;;;;;;;-4.13;77.32;146310.69;5025283;28;20113;-64
2022/12/15 10:08:39;;;;;;;12.45;9.30;;;;;;;-3.87;78.37;146375.28;5037531;28;20025;-64
2022/12/15 10:11:20;;;;;;;15.45;10.18;;;;;;;-3.93;77.97;146358.78;5029654;28;20072;-65
2022/12/15 10:14:09;;;;;;;14.80;9.52;;;;;;;-3.97;77.05;146349.94;5038620;28;20093;-65
2022/12/15 10:16:40;;;;;;;13.45;9.45;;;;;;;-3.70;77.61;146415.84;5039920;28;20041;-64
2022/12/15 10:19:24;;;;;;;13.48;10.18;;;;;;;-3.83;77.52;146384.16;5039679;28;20048;-65
2022/12/15 10:21:50;;;;;;;13.57;10.25;;;;;;;-3.66;77.69;146425.97;5040673;28;20021;-65
2022/12/15 10:24:21;;;;;;;13.25;9.85;;;;;;;-3.63;77.34;146433.56;5042982;28;20028;-65
2022/12/15 10:27:07;;;;;;;;;;;;;;;-3.75;77.59;146404.41;5036829;28;20029;-64
2022/12/15 10:29:41;;;;;;;15.38;10.68;;;;;;;-3.81;78.25;146389.22;5046583;28;20157;-66
2022/12/15 10:32:23;;;;;;;15.73;11.43;;;;;;;-3.80;78.55;146391.75;5027310;28;20032;-65
2022/12/15 10:34:49;;;;;;;;;;;;;;;-3.80;78.44;146391.75;5025284;28;20097;-65
2022/12/15 10:37:19;;;;;;;16.38;10.93;;;;;;;-3.75;79.50;146403.16;5034074;28;20105;-65
2022/12/15 10:39:48;;;;;;;19.83;13.80;;;;;;;-3.64;79.47;146432.28;5044086;28;20121;-65
2022/12/15 10:42:25;;;;;;;26.55;17.02;;;;;;;-3.65;79.41;146429.78;5042743;28;20606;-65
2022/12/15 10:44:54;;;;;;;16.70;12.27;;;;;;;-3.78;78.12;146396.81;5024427;28;20030;-65
2022/12/15 10:47:26;;;;;;;18.67;12.38;;;;;;;-3.70;79.18;146415.84;5031456;28;20025;-65
2022/12/15 10:49:53;;;;;;;18.35;12.38;;;;;;;-3.75;77.97;146403.16;5034673;28;20037;-64
2022/12/15 10:52:33;;;;;;;20.27;12.80;;;;;;;-3.95;78.58;146353.75;5033677;28;20329;-65
2022/12/15 10:54:59;;;;;;;16.95;12.25;;;;;;;-3.76;78.85;146401.91;5024048;28;20084;-65
2022/12/15 10:57:30;;;;;;;18.33;12.70;;;;;;;-4.01;78.99;146339.81;5026432;28;20148;-64
2022/12/15 11:00:14;;;;;;;17.20;12.82;;;;;;;-3.99;79.43;146346.16;5040512;28;20044;-65
2022/12/15 11:02:40;;;;;;;19.13;12.63;;;;;;;-4.11;78.81;146314.47;5023906;28;20037;-64
2022/12/15 11:05:15;;;;;;;20.50;12.93;;;;;;;-4.07;79.05;146325.88;5039328;28;20033;-64
2022/12/15 11:08:12;;;;;;;21.92;14.40;;;;;;;-3.97;79.65;146348.69;5043396;28;20322;-64
2022/12/15 11:13:33;;;;;;;26.90;15.25;;;;;;;-4.19;80.38;146296.75;5025160;28;20081;-63
2022/12/15 11:16:16;;;;;;;23.38;15.45;;;;;;;-4.33;80.37;146261.28;5028798;28;20050;-63
2022/12/15 11:19:20;;;;;;;20.65;14.40;;;;;;;-4.29;80.89;146270.13;5028723;28;20029;-63
2022/12/15 11:21:50;;;;;;;20.52;14.07;;;;;;;-4.00;80.33;146343.59;5061355;28;20351;-63
2022/12/15 11:25:05;;;;;;;25.95;15.43;;;;;;;-3.85;80.99;146380.38;5046534;28;20089;-63
2022/12/15 11:27:42;;;;;;;23.73;14.23;;;;;;;-4.06;81.71;146328.41;5034480;28;20041;-63
2022/12/15 11:30:21;;;;;;;22.10;14.48;;;;;;;-4.28;82.36;146272.69;5022337;28;20036;-62
2022/12/15 11:32:56;;;;;;;21.45;14.85;;;;;;;-4.05;82.31;146329.66;5043208;28;20341;-63
2022/12/15 11:35:56;;;;;;;21.35;14.60;;;;;;;-4.23;83.46;146285.31;5024654;28;20372;-63
2022/12/15 11:38:24;;;;;;;21.27;14.63;;;;;;;-4.04;82.50;146332.22;5041708;28;20021;-64
2022/12/15 11:40:53;;;;;;;21.38;14.07;;;;;;;-4.35;82.08;146257.50;5027760;28;20113;-64
2022/12/15 11:43:48;;;;;;;21.52;14.52;;;;;;;-4.13;83.03;146310.69;5032286;28;20024;-63
2022/12/15 11:46:20;;;;;;;24.25;14.80;;;;;;;-4.15;82.52;146305.59;5034206;28;20072;-63
2022/12/15 11:49:13;;;;;;;23.92;14.45;;;;;;;-4.34;82.37;146260.00;5028156;28;20091;-63
2022/12/15 11:51:41;;;;;;;21.98;15.18;;;;;;;-4.47;82.74;146227.09;5039255;28;20036;-63
2022/12/15 11:54:41;;;;;;;22.90;14.70;;;;;;;-4.33;81.95;146261.28;5025059;28;20034;-63
2022/12/15 11:57:25;;;;;;;22.95;14.27;;;;;;;-4.32;81.52;146262.53;5029797;28;20054;-64
2022/12/15 12:00:10;;;;;;;21.98;14.18;;;;;;;-4.34;82.88;146258.75;5023019;28;20194;-64
2022/12/15 12:02:56;;;;;;;24.15;15.13;;;;;;;-4.15;81.58;146305.59;5023238;28;20318;-64
2022/12/15 12:05:55;;;;;;;21.88;14.55;;;;;;;-3.96;82.74;146351.19;5051508;28;20337;-64
2022/12/15 12:08:39;;;;;;;22.40;14.68;;;;;;;-4.06;81.15;146327.13;5038541;28;20216;-64
2022/12/15 12:11:12;;;;;;;19.67;14.00;;;;;;;-4.42;81.24;146239.72;5026866;28;20044;-64
2022/12/15 12:13:45;;;;;;;20.90;13.93;;;;;;;-4.21;82.41;146291.66;5034992;28;20045;-64
2022/12/15 12:16:10;;;;;;;23.20;14.68;;;;;;;-4.22;81.59;146289.16;5044214;28;20124;-64
2022/12/15 12:18:47;;;;;;;23.13;14.95;;;;;;;-4.49;81.75;146222.00;5042287;28;20038;-65
2022/12/15 12:21:22;;;;;;;26.88;14.77;;;;;;;-4.40;81.32;146244.81;5034402;28;20029;-64
2022/12/15 12:24:03;;;;;;;19.13;13.23;;;;;;;-4.63;81.18;146186.56;5046077;28;20024;-65
2022/12/15 12:26:34;;;;;;;19.70;13.37;;;;;;;-4.35;81.77;146256.19;5027867;28;20105;-64
2022/12/15 12:29:26;;;;;;;21.88;14.10;;;;;;;-4.48;80.88;146224.53;5026678;28;20482;-64
2022/12/15 12:32:01;;;;;;;34.65;19.75;;;;;;;-4.62;82.46;146189.09;5040471;28;20055;-65
2022/12/15 12:34:33;;;;;;;21.90;13.85;;;;;;;-4.44;81.75;146233.44;5036222;28;20029;-64
2022/12/15 12:37:27;;;;;;;22.15;14.00;;;;;;;-4.55;80.79;146208.06;5033073;28;20045;-64
2022/12/15 12:40:01;;;;;;;18.77;13.57;;;;;;;-4.54;81.89;146210.63;5047073;28;20053;-65
2022/12/15 12:42:37;;;;;;;23.25;13.93;;;;;;;-4.61;82.50;146191.63;5027679;28;20026;-65
2022/12/15 12:45:04;;;;;;;21.80;14.43;;;;;;;-4.91;84.12;146118.22;5046415;28;20032;-64
2022/12/15 12:47:39;;;;;;;22.23;14.18;;;;;;;-5.22;83.08;146042.25;5027908;28;20337;-65
2022/12/15 12:50:18;;;;;;;23.50;15.18;;;;;;;-5.00;83.10;146096.69;5041841;28;20017;-63
2022/12/15 12:52:59;;;;;;;19.15;13.93;;;;;;;-4.82;82.35;146140.97;5033727;28;20048;-64
2022/12/15 12:55:38;;;;;;;22.48;14.80;;;;;;;-4.62;82.28;146190.34;5036176;28;20029;-64
2022/12/15 12:58:29;;;;;;;24.45;13.98;;;;;;;-4.47;83.63;146227.09;5039161;28;20038;-64
2022/12/15 13:01:23;;;;;;;20.43;13.27;;;;;;;-4.85;82.01;146134.63;5032120;28;20058;-65
2022/12/15 13:04:06;;;;;;;20.55;14.80;;;;;;;-4.48;82.77;146224.53;5046105;28;20018;-64
2022/12/15 13:06:34;;;;;;;20.58;13.52;;;;;;;-4.61;82.03;146192.88;5043312;28;20313;-64
2022/12/15 13:09:15;;;;;;;20.85;14.25;;;;;;;-4.62;81.07;146189.09;5037197;28;20041;-65
2022/12/15 13:11:55;;;;;;;21.20;14.03;;;;;;;-4.81;81.51;146143.53;5031202;28;20045;-64
2022/12/15 13:14:39;;;;;;;23.95;14.95;;;;;;;-4.78;83.14;146149.84;5028343;28;20310;-64
2022/12/15 13:17:16;;;;;;;24.13;13.70;;;;;;;-4.94;81.38;146110.63;5044099;28;20041;-65
2022/12/15 13:19:57;;;;;;;20.63;15.15;;;;;;;-4.85;81.69;146133.38;5033764;28;20547;-65
2022/12/15 13:22:25;;;;;;;20.87;13.47;;;;;;;-4.98;82.05;146100.50;5033615;28;20025;-64
2022/12/15 13:24:50;;;;;;;21.10;13.82;;;;;;;-4.95;81.86;146108.09;5040651;28;20312;-65
2022/12/15 13:27:17;;;;;;;21.33;14.07;;;;;;;-4.81;81.74;146143.53;5029662;28;20049;-64
2022/12/15 13:29:59;;;;;;;21.38;13.00;;;;;;;-4.85;81.24;146134.63;5035573;28;20313;-64
2022/12/15 13:32:40;;;;;;;20.92;13.82;;;;;;;-4.99;83.31;146097.94;5032314;28;20314;-65
2022/12/15 13:35:11;;;;;;;22.70;13.23;;;;;;;-4.93;80.59;146113.13;5037710;28;20041;-65
2022/12/15 13:37:52;;;;;;;20.83;13.63;;;;;;;-4.92;80.96;146115.66;5035236;28;20053;-65
2022/12/15 13:40:23;;;;;;;20.92;13.63;;;;;;;-4.90;80.39;146120.75;5031462;28;20025;-63
2022/12/15 13:42:57;;;;;;;19.95;12.38;;;;;;;-5.22;81.68;146042.25;5035366;28;20018;-64
2022/12/15 13:45:39;;;;;;;25.65;15.20;;;;;;;-5.25;82.81;146034.69;5032336;28;20026;-64
2022/12/15 13:48:18;;;;;;;20.42;13.77;;;;;;;-5.08;80.69;146076.44;5032313;28;20385;-64
2022/12/15 13:51:26;;;;;;;21.65;14.65;;;;;;;-4.81;80.76;146142.28;5032925;28;20075;-65
2022/12/15 13:54:23;;;;;;;22.30;14.30;;;;;;;-4.97;81.34;146103.00;5029530;28;20104;-65
2022/12/15 13:56:54;;;;;;;18.90;13.15;;;;;;;-5.19;80.27;146049.84;5034623;28;20389;-64
2022/12/15 13:59:29;;;;;;;;;;;;;;;-5.11;80.87;146070.09;5032533;28;20244;-63
2022/12/15 14:01:55;;;;;;;22.60;13.85;;;;;;;-5.13;81.60;146063.78;5033243;28;19984;-63
2022/12/15 14:04:21;;;;;;;17.23;12.65;;;;;;;-4.92;81.51;146115.66;5033664;28;20032;-64
2022/12/15 14:06:59;;;;;;;19.80;13.52;;;;;;;-4.79;79.62;146148.56;5033527;28;20026;-66
2022/12/15 14:09:31;;;;;;;20.65;13.05;;;;;;;-5.15;78.45;146059.97;5032672;28;20032;-64
2022/12/15 14:11:57;;;;;;;22.05;14.25;;;;;;;-5.01;81.09;146092.91;5033238;28;20022;-64